Terminal Aerodrome Forecast
Issued by NWS Wilmington, NC

Home | Current Version | Previous Version | Text Only | Print | Product List | Glossary On
Versions: 1 2 3 4 5 6 7 8 9 10 11 12 13 14 15 16
000
FTUS42 KILM 191100 CCA
TAFLBT
TAF COR
KLBT 191145Z 1912/2012 05012G20KT 5SM -RA BR OVC007
      TEMPO 1912/1916 2SM -RA BR
     FM191600 04014G20KT 6SM -RA BKN008 OVC015
     FM200800 03015G25KT P6SM BKN010 OVC025=

USA.gov is the U.S. government's official web portal to all federal, state and local government web resources and services.